sensor_id;sensor_type;location;lat;lon;timestamp;temperature;humidity
22674;DHT22;11504;43.334;21.918;2024-03-23T00:54:43;9.0;100.0
22674;DHT22;11504;43.334;21.918;2024-03-23T00:59:20;8.8;100.0
22674;DHT22;11504;43.334;21.918;2024-03-23T01:03:57;8.8;100.0
22674;DHT22;11504;43.334;21.918;2024-03-23T01:08:35;8.7;100.0
22674;DHT22;11504;43.334;21.918;2024-03-23T01:13:11;8.7;100.0
22674;DHT22;11504;43.334;21.918;2024-03-23T01:17:48;8.6;100.0
22674;DHT22;11504;43.334;21.918;2024-03-23T01:22:25;8.6;100.0
22674;DHT22;11504;43.334;21.918;2024-03-23T01:27:02;8.6;100.0
22674;DHT22;11504;43.334;21.918;2024-03-23T01:31:40;8.6;100.0
22674;DHT22;11504;43.334;21.918;2024-03-23T01:36:17;8.6;100.0
22674;DHT22;11504;43.334;21.918;2024-03-23T01:40:57;8.6;100.0
22674;DHT22;11504;43.334;21.918;2024-03-23T01:45:35;8.6;100.0
22674;DHT22;11504;43.334;21.918;2024-03-23T01:50:14;8.7;100.0
22674;DHT22;11504;43.334;21.918;2024-03-23T01:54:52;8.7;100.0
22674;DHT22;11504;43.334;21.918;2024-03-23T01:59:29;8.6;100.0
22674;DHT22;11504;43.334;21.918;2024-03-23T02:04:07;8.6;100.0
22674;DHT22;11504;43.334;21.918;2024-03-23T02:08:44;8.5;100.0
22674;DHT22;11504;43.334;21.918;2024-03-23T02:13:21;8.5;100.0
22674;DHT22;11504;43.334;21.918;2024-03-23T02:17:58;8.2;100.0
22674;DHT22;11504;43.334;21.918;2024-03-23T02:22:37;8.2;100.0
22674;DHT22;11504;43.334;21.918;2024-03-23T02:27:15;8.0;100.0
22674;DHT22;11504;43.334;21.918;2024-03-23T02:31:51;8.0;100.0
22674;DHT22;11504;43.334;21.918;2024-03-23T02:36:28;8.0;100.0
22674;DHT22;11504;43.334;21.918;2024-03-23T02:41:05;8.0;100.0
22674;DHT22;11504;43.334;21.918;2024-03-23T02:45:41;8.0;100.0
22674;DHT22;11504;43.334;21.918;2024-03-23T02:50:18;8.1;100.0
22674;DHT22;11504;43.334;21.918;2024-03-23T02:54:55;8.1;100.0
22674;DHT22;11504;43.334;21.918;2024-03-23T02:59:31;8.0;100.0
22674;DHT22;11504;43.334;21.918;2024-03-23T03:04:07;8.0;100.0
22674;DHT22;11504;43.334;21.918;2024-03-23T03:08:44;7.8;100.0
22674;DHT22;11504;43.334;21.918;2024-03-23T03:13:20;7.8;100.0
22674;DHT22;11504;43.334;21.918;2024-03-23T03:17:57;7.6;100.0
22674;DHT22;11504;43.334;21.918;2024-03-23T03:22:34;7.6;100.0
22674;DHT22;11504;43.334;21.918;2024-03-23T03:27:11;7.3;100.0
22674;DHT22;11504;43.334;21.918;2024-03-23T03:31:48;7.3;100.0
22674;DHT22;11504;43.334;21.918;2024-03-23T03:36:26;7.3;100.0
22674;DHT22;11504;43.334;21.918;2024-03-23T03:41:03;7.3;100.0
22674;DHT22;11504;43.334;21.918;2024-03-23T03:45:41;7.3;100.0
22674;DHT22;11504;43.334;21.918;2024-03-23T03:50:17;7.3;100.0
22674;DHT22;11504;43.334;21.918;2024-03-23T03:55:02;7.3;100.0
22674;DHT22;11504;43.334;21.918;2024-03-23T03:59:49;7.2;100.0
22674;DHT22;11504;43.334;21.918;2024-03-23T04:04:26;7.2;100.0
22674;DHT22;11504;43.334;21.918;2024-03-23T04:09:02;7.1;100.0
22674;DHT22;11504;43.334;21.918;2024-03-23T04:13:39;7.1;100.0
22674;DHT22;11504;43.334;21.918;2024-03-23T04:18:16;7.0;100.0
22674;DHT22;11504;43.334;21.918;2024-03-23T04:22:52;7.0;100.0
22674;DHT22;11504;43.334;21.918;2024-03-23T04:27:29;7.0;100.0
22674;DHT22;11504;43.334;21.918;2024-03-23T04:32:06;7.0;100.0
22674;DHT22;11504;43.334;21.918;2024-03-23T04:36:43;7.0;100.0
22674;DHT22;11504;43.334;21.918;2024-03-23T04:41:19;7.1;100.0
22674;DHT22;11504;43.334;21.918;2024-03-23T04:45:56;7.1;100.0
22674;DHT22;11504;43.334;21.918;2024-03-23T04:50:33;7.2;100.0
22674;DHT22;11504;43.334;21.918;2024-03-23T04:55:10;7.2;100.0
22674;DHT22;11504;43.334;21.918;2024-03-23T04:59:47;7.8;100.0
22674;DHT22;11504;43.334;21.918;2024-03-23T05:04:25;7.8;100.0
22674;DHT22;11504;43.334;21.918;2024-03-23T05:09:01;8.5;100.0
22674;DHT22;11504;43.334;21.918;2024-03-23T05:13:38;8.5;100.0
22674;DHT22;11504;43.334;21.918;2024-03-23T05:18:14;11.4;100.0
22674;DHT22;11504;43.334;21.918;2024-03-23T05:22:50;11.4;100.0
22674;DHT22;11504;43.334;21.918;2024-03-23T05:27:26;14.3;100.0
22674;DHT22;11504;43.334;21.918;2024-03-23T05:32:03;14.3;100.0
22674;DHT22;11504;43.334;21.918;2024-03-23T05:36:41;14.3;100.0
22674;DHT22;11504;43.334;21.918;2024-03-23T05:41:18;16.8;100.0
22674;DHT22;11504;43.334;21.918;2024-03-23T05:45:55;16.8;100.0
22674;DHT22;11504;43.334;21.918;2024-03-23T05:50:33;19.4;100.0
22674;DHT22;11504;43.334;21.918;2024-03-23T05:55:10;19.4;100.0
22674;DHT22;11504;43.334;21.918;2024-03-23T05:59:47;20.9;100.0
22674;DHT22;11504;43.334;21.918;2024-03-23T06:04:24;20.9;100.0
22674;DHT22;11504;43.334;21.918;2024-03-23T06:09:01;22.4;100.0
22674;DHT22;11504;43.334;21.918;2024-03-23T06:13:37;22.4;100.0
22674;DHT22;11504;43.334;21.918;2024-03-23T06:18:14;23.5;100.0
22674;DHT22;11504;43.334;21.918;2024-03-23T06:22:51;23.5;100.0
22674;DHT22;11504;43.334;21.918;2024-03-23T06:27:28;24.6;100.0
22674;DHT22;11504;43.334;21.918;2024-03-23T06:32:05;24.6;100.0
22674;DHT22;11504;43.334;21.918;2024-03-23T06:36:43;24.6;100.0
22674;DHT22;11504;43.334;21.918;2024-03-23T06:41:20;24.8;100.0
22674;DHT22;11504;43.334;21.918;2024-03-23T06:45:57;24.8;100.0
22674;DHT22;11504;43.334;21.918;2024-03-23T06:50:34;24.9;100.0
22674;DHT22;11504;43.334;21.918;2024-03-23T06:55:11;24.9;100.0
22674;DHT22;11504;43.334;21.918;2024-03-23T06:59:48;24.0;100.0
22674;DHT22;11504;43.334;21.918;2024-03-23T07:04:25;24.0;100.0
22674;DHT22;11504;43.334;21.918;2024-03-23T07:09:02;23.2;100.0
22674;DHT22;11504;43.334;21.918;2024-03-23T07:13:39;23.2;100.0
22674;DHT22;11504;43.334;21.918;2024-03-23T07:18:16;22.9;100.0
22674;DHT22;11504;43.334;21.918;2024-03-23T07:22:53;22.9;100.0
22674;DHT22;11504;43.334;21.918;2024-03-23T07:27:29;22.6;100.0
22674;DHT22;11504;43.334;21.918;2024-03-23T07:32:06;22.6;100.0
22674;DHT22;11504;43.334;21.918;2024-03-23T07:36:43;22.6;100.0
22674;DHT22;11504;43.334;21.918;2024-03-23T07:41:20;22.6;100.0
22674;DHT22;11504;43.334;21.918;2024-03-23T07:45:58;22.6;100.0
22674;DHT22;11504;43.334;21.918;2024-03-23T07:50:35;22.5;100.0
22674;DHT22;11504;43.334;21.918;2024-03-23T07:55:12;22.5;100.0
22674;DHT22;11504;43.334;21.918;2024-03-23T07:59:48;22.4;100.0
22674;DHT22;11504;43.334;21.918;2024-03-23T08:04:25;22.4;100.0
22674;DHT22;11504;43.334;21.918;2024-03-23T08:09:03;22.4;100.0
22674;DHT22;11504;43.334;21.918;2024-03-23T08:13:44;22.4;100.0
22674;DHT22;11504;43.334;21.918;2024-03-23T08:18:21;22.7;100.0
22674;DHT22;11504;43.334;21.918;2024-03-23T08:22:58;22.7;100.0
22674;DHT22;11504;43.334;21.918;2024-03-23T08:27:35;23.0;100.0
22674;DHT22;11504;43.334;21.918;2024-03-23T08:32:12;23.0;100.0
22674;DHT22;11504;43.334;21.918;2024-03-23T08:36:50;23.0;100.0
22674;DHT22;11504;43.334;21.918;2024-03-23T08:41:27;23.2;100.0
22674;DHT22;11504;43.334;21.918;2024-03-23T08:46:05;23.2;100.0
22674;DHT22;11504;43.334;21.918;2024-03-23T08:50:46;23.4;100.0
22674;DHT22;11504;43.334;21.918;2024-03-23T08:55:23;23.4;100.0
22674;DHT22;11504;43.334;21.918;2024-03-23T09:00:00;23.7;100.0
22674;DHT22;11504;43.334;21.918;2024-03-23T09:04:36;23.7;100.0
22674;DHT22;11504;43.334;21.918;2024-03-23T09:09:13;24.0;100.0
22674;DHT22;11504;43.334;21.918;2024-03-23T09:13:49;24.0;100.0
22674;DHT22;11504;43.334;21.918;2024-03-23T09:18:26;24.2;100.0
22674;DHT22;11504;43.334;21.918;2024-03-23T09:23:04;24.2;100.0
22674;DHT22;11504;43.334;21.918;2024-03-23T09:27:40;24.4;100.0
22674;DHT22;11504;43.334;21.918;2024-03-23T09:32:17;24.4;100.0
22674;DHT22;11504;43.334;21.918;2024-03-23T09:36:54;24.4;100.0
22674;DHT22;11504;43.334;21.918;2024-03-23T09:41:31;24.6;100.0
22674;DHT22;11504;43.334;21.918;2024-03-23T09:46:08;24.6;100.0
22674;DHT22;11504;43.334;21.918;2024-03-23T09:50:46;24.9;100.0
22674;DHT22;11504;43.334;21.918;2024-03-23T09:55:22;24.9;100.0
22674;DHT22;11504;43.334;21.918;2024-03-23T09:59:59;24.6;100.0
22674;DHT22;11504;43.334;21.918;2024-03-23T10:04:38;24.6;100.0
22674;DHT22;11504;43.334;21.918;2024-03-23T10:09:17;24.3;100.0
22674;DHT22;11504;43.334;21.918;2024-03-23T10:13:53;24.3;100.0
22674;DHT22;11504;43.334;21.918;2024-03-23T10:18:30;24.2;100.0
22674;DHT22;11504;43.334;21.918;2024-03-23T10:23:16;24.2;100.0
22674;DHT22;11504;43.334;21.918;2024-03-23T10:27:59;24.0;100.0
22674;DHT22;11504;43.334;21.918;2024-03-23T10:32:37;24.0;100.0
22674;DHT22;11504;43.334;21.918;2024-03-23T10:37:15;23.8;100.0
22674;DHT22;11504;43.334;21.918;2024-03-23T10:41:56;23.8;100.0
22674;DHT22;11504;43.334;21.918;2024-03-23T10:46:37;23.8;100.0
22674;DHT22;11504;43.334;21.918;2024-03-23T10:51:14;23.7;100.0
22674;DHT22;11504;43.334;21.918;2024-03-23T10:55:54;23.7;100.0
22674;DHT22;11504;43.334;21.918;2024-03-23T11:00:33;23.4;100.0
22674;DHT22;11504;43.334;21.918;2024-03-23T11:05:46;23.4;100.0
22674;DHT22;11504;43.334;21.918;2024-03-23T11:10:26;23.1;100.0
22674;DHT22;11504;43.334;21.918;2024-03-23T11:15:11;23.1;100.0
22674;DHT22;11504;43.334;21.918;2024-03-23T11:19:55;22.7;100.0
22674;DHT22;11504;43.334;21.918;2024-03-23T11:24:34;22.7;100.0
22674;DHT22;11504;43.334;21.918;2024-03-23T11:29:13;22.3;100.0
22674;DHT22;11504;43.334;21.918;2024-03-23T11:34:04;22.3;100.0
22674;DHT22;11504;43.334;21.918;2024-03-23T11:38:42;22.0;100.0
22674;DHT22;11504;43.334;21.918;2024-03-23T11:43:24;22.0;100.0
22674;DHT22;11504;43.334;21.918;2024-03-23T11:48:06;21.7;100.0
22674;DHT22;11504;43.334;21.918;2024-03-23T11:52:45;21.7;100.0
22674;DHT22;11504;43.334;21.918;2024-03-23T11:57:22;21.7;100.0
22674;DHT22;11504;43.334;21.918;2024-03-23T12:02:00;21.7;100.0
22674;DHT22;11504;43.334;21.918;2024-03-23T12:06:43;21.7;100.0
22674;DHT22;11504;43.334;21.918;2024-03-23T12:11:20;21.7;100.0
22674;DHT22;11504;43.334;21.918;2024-03-23T12:16:10;21.7;100.0
22674;DHT22;11504;43.334;21.918;2024-03-23T12:20:53;21.8;100.0
22674;DHT22;11504;43.334;21.918;2024-03-23T12:25:30;21.8;100.0
22674;DHT22;11504;43.334;21.918;2024-03-23T12:30:09;21.8;100.0
22674;DHT22;11504;43.334;21.918;2024-03-23T12:34:49;21.8;100.0
22674;DHT22;11504;43.334;21.918;2024-03-23T12:39:25;21.8;100.0
22674;DHT22;11504;43.334;21.918;2024-03-23T12:44:03;21.8;100.0
22674;DHT22;11504;43.334;21.918;2024-03-23T12:48:40;21.8;100.0
22674;DHT22;11504;43.334;21.918;2024-03-23T12:53:16;21.8;100.0
22674;DHT22;11504;43.334;21.918;2024-03-23T12:57:53;21.8;100.0
22674;DHT22;11504;43.334;21.918;2024-03-23T13:02:30;21.8;100.0
22674;DHT22;11504;43.334;21.918;2024-03-23T13:07:07;21.8;100.0
22674;DHT22;11504;43.334;21.918;2024-03-23T13:11:43;21.9;100.0
22674;DHT22;11504;43.334;21.918;2024-03-23T13:16:19;21.9;100.0
22674;DHT22;11504;43.334;21.918;2024-03-23T13:20:56;21.9;100.0
22674;DHT22;11504;43.334;21.918;2024-03-23T13:25:32;21.9;100.0
22674;DHT22;11504;43.334;21.918;2024-03-23T13:30:10;21.9;100.0
22674;DHT22;11504;43.334;21.918;2024-03-23T13:34:48;21.9;100.0
22674;DHT22;11504;43.334;21.918;2024-03-23T13:39:25;21.8;100.0
22674;DHT22;11504;43.334;21.918;2024-03-23T13:44:02;21.8;100.0
22674;DHT22;11504;43.334;21.918;2024-03-23T13:48:38;21.7;100.0
22674;DHT22;11504;43.334;21.918;2024-03-23T13:53:15;21.7;100.0
22674;DHT22;11504;43.334;21.918;2024-03-23T13:57:52;21.8;100.0
22674;DHT22;11504;43.334;21.918;2024-03-23T14:02:29;21.8;100.0
22674;DHT22;11504;43.334;21.918;2024-03-23T14:07:07;21.8;100.0
22674;DHT22;11504;43.334;21.918;2024-03-23T14:11:44;21.9;100.0
22674;DHT22;11504;43.334;21.918;2024-03-23T14:16:21;21.9;100.0
22674;DHT22;11504;43.334;21.918;2024-03-23T14:21:00;21.8;100.0
22674;DHT22;11504;43.334;21.918;2024-03-23T14:25:38;21.8;100.0
22674;DHT22;11504;43.334;21.918;2024-03-23T14:30:15;21.8;100.0
22674;DHT22;11504;43.334;21.918;2024-03-23T14:34:51;21.8;100.0
22674;DHT22;11504;43.334;21.918;2024-03-23T14:39:27;21.6;100.0
22674;DHT22;11504;43.334;21.918;2024-03-23T14:44:04;21.6;100.0
22674;DHT22;11504;43.334;21.918;2024-03-23T14:48:42;21.5;100.0
22674;DHT22;11504;43.334;21.918;2024-03-23T14:53:20;21.5;100.0
22674;DHT22;11504;43.334;21.918;2024-03-23T14:57:56;21.4;100.0
22674;DHT22;11504;43.334;21.918;2024-03-23T15:02:33;21.4;100.0
22674;DHT22;11504;43.334;21.918;2024-03-23T15:07:09;21.4;100.0
22674;DHT22;11504;43.334;21.918;2024-03-23T15:11:46;21.4;100.0
22674;DHT22;11504;43.334;21.918;2024-03-23T15:16:22;21.4;100.0
22674;DHT22;11504;43.334;21.918;2024-03-23T15:21:02;21.4;100.0
22674;DHT22;11504;43.334;21.918;2024-03-23T15:25:40;21.4;100.0
22674;DHT22;11504;43.334;21.918;2024-03-23T15:30:17;21.4;100.0
22674;DHT22;11504;43.334;21.918;2024-03-23T15:34:54;21.4;100.0
22674;DHT22;11504;43.334;21.918;2024-03-23T15:39:31;21.4;100.0
22674;DHT22;11504;43.334;21.918;2024-03-23T15:44:08;21.4;100.0
22674;DHT22;11504;43.334;21.918;2024-03-23T15:48:45;21.3;100.0
22674;DHT22;11504;43.334;21.918;2024-03-23T15:53:23;21.3;100.0
22674;DHT22;11504;43.334;21.918;2024-03-23T15:58:00;21.2;100.0
22674;DHT22;11504;43.334;21.918;2024-03-23T16:02:36;21.2;100.0
22674;DHT22;11504;43.334;21.918;2024-03-23T16:07:13;21.2;100.0
22674;DHT22;11504;43.334;21.918;2024-03-23T16:11:49;21.1;100.0
22674;DHT22;11504;43.334;21.918;2024-03-23T16:16:25;21.1;100.0
22674;DHT22;11504;43.334;21.918;2024-03-23T16:21:04;21.0;100.0
22674;DHT22;11504;43.334;21.918;2024-03-23T16:25:47;21.0;100.0
22674;DHT22;11504;43.334;21.918;2024-03-23T16:30:25;20.8;100.0
22674;DHT22;11504;43.334;21.918;2024-03-23T16:35:02;20.8;100.0
22674;DHT22;11504;43.334;21.918;2024-03-23T16:39:39;20.6;100.0
22674;DHT22;11504;43.334;21.918;2024-03-23T16:44:16;20.6;100.0
22674;DHT22;11504;43.334;21.918;2024-03-23T16:48:52;20.4;100.0
22674;DHT22;11504;43.334;21.918;2024-03-23T16:53:30;20.4;100.0
22674;DHT22;11504;43.334;21.918;2024-03-23T16:58:08;20.2;100.0
22674;DHT22;11504;43.334;21.918;2024-03-23T17:02:45;20.2;100.0
22674;DHT22;11504;43.334;21.918;2024-03-23T17:07:23;20.2;100.0
22674;DHT22;11504;43.334;21.918;2024-03-23T17:12:00;20.0;100.0
22674;DHT22;11504;43.334;21.918;2024-03-23T17:16:36;20.0;100.0
22674;DHT22;11504;43.334;21.918;2024-03-23T17:21:13;19.8;100.0
22674;DHT22;11504;43.334;21.918;2024-03-23T17:25:50;19.8;100.0
22674;DHT22;11504;43.334;21.918;2024-03-23T17:30:27;19.7;100.0
22674;DHT22;11504;43.334;21.918;2024-03-23T17:35:04;19.7;100.0
22674;DHT22;11504;43.334;21.918;2024-03-23T17:39:42;19.5;100.0
22674;DHT22;11504;43.334;21.918;2024-03-23T17:44:18;19.5;100.0
22674;DHT22;11504;43.334;21.918;2024-03-23T17:48:55;19.4;100.0
22674;DHT22;11504;43.334;21.918;2024-03-23T17:53:38;19.4;100.0
22674;DHT22;11504;43.334;21.918;2024-03-23T17:58:16;19.2;100.0
22674;DHT22;11504;43.334;21.918;2024-03-23T18:02:52;19.2;100.0
22674;DHT22;11504;43.334;21.918;2024-03-23T18:07:29;19.1;100.0
22674;DHT22;11504;43.334;21.918;2024-03-23T18:12:06;19.1;100.0
22674;DHT22;11504;43.334;21.918;2024-03-23T18:16:43;19.1;100.0
22674;DHT22;11504;43.334;21.918;2024-03-23T18:21:20;18.9;100.0
22674;DHT22;11504;43.334;21.918;2024-03-23T18:25:57;18.9;100.0
22674;DHT22;11504;43.334;21.918;2024-03-23T18:30:34;18.7;100.0
22674;DHT22;11504;43.334;21.918;2024-03-23T18:35:10;18.7;100.0
22674;DHT22;11504;43.334;21.918;2024-03-23T18:39:47;18.6;100.0
22674;DHT22;11504;43.334;21.918;2024-03-23T18:44:24;18.6;100.0
22674;DHT22;11504;43.334;21.918;2024-03-23T18:49:00;18.5;100.0
22674;DHT22;11504;43.334;21.918;2024-03-23T18:53:36;18.5;100.0
22674;DHT22;11504;43.334;21.918;2024-03-23T18:58:12;18.3;100.0
22674;DHT22;11504;43.334;21.918;2024-03-23T19:02:48;18.3;100.0
22674;DHT22;11504;43.334;21.918;2024-03-23T19:07:25;18.3;100.0
22674;DHT22;11504;43.334;21.918;2024-03-23T19:12:02;18.1;100.0
22674;DHT22;11504;43.334;21.918;2024-03-23T19:16:39;18.1;100.0
22674;DHT22;11504;43.334;21.918;2024-03-23T19:21:15;18.0;100.0
22674;DHT22;11504;43.334;21.918;2024-03-23T19:25:52;18.0;100.0
22674;DHT22;11504;43.334;21.918;2024-03-23T19:30:31;17.9;100.0
22674;DHT22;11504;43.334;21.918;2024-03-23T19:35:10;17.9;100.0
22674;DHT22;11504;43.334;21.918;2024-03-23T19:39:47;17.8;100.0
22674;DHT22;11504;43.334;21.918;2024-03-23T19:44:23;17.8;100.0
22674;DHT22;11504;43.334;21.918;2024-03-23T19:49:00;17.8;100.0
22674;DHT22;11504;43.334;21.918;2024-03-23T19:53:37;17.8;100.0
22674;DHT22;11504;43.334;21.918;2024-03-23T19:58:14;17.7;100.0
22674;DHT22;11504;43.334;21.918;2024-03-23T20:02:51;17.7;100.0
22674;DHT22;11504;43.334;21.918;2024-03-23T20:07:28;17.7;100.0
22674;DHT22;11504;43.334;21.918;2024-03-23T20:12:06;17.6;100.0
22674;DHT22;11504;43.334;21.918;2024-03-23T20:16:45;17.6;100.0
22674;DHT22;11504;43.334;21.918;2024-03-23T20:21:22;17.5;100.0
22674;DHT22;11504;43.334;21.918;2024-03-23T20:25:59;17.5;100.0
22674;DHT22;11504;43.334;21.918;2024-03-23T20:30:36;17.4;100.0
22674;DHT22;11504;43.334;21.918;2024-03-23T20:35:13;17.4;100.0
22674;DHT22;11504;43.334;21.918;2024-03-23T20:39:50;17.3;100.0
22674;DHT22;11504;43.334;21.918;2024-03-23T20:44:27;17.3;100.0
22674;DHT22;11504;43.334;21.918;2024-03-23T20:49:04;17.2;100.0
22674;DHT22;11504;43.334;21.918;2024-03-23T20:53:41;17.2;100.0
22674;DHT22;11504;43.334;21.918;2024-03-23T20:58:18;17.2;100.0
22674;DHT22;11504;43.334;21.918;2024-03-23T21:02:56;17.2;100.0
22674;DHT22;11504;43.334;21.918;2024-03-23T21:07:33;17.2;100.0
22674;DHT22;11504;43.334;21.918;2024-03-23T21:12:10;17.1;100.0
22674;DHT22;11504;43.334;21.918;2024-03-23T21:16:46;17.1;100.0
22674;DHT22;11504;43.334;21.918;2024-03-23T21:21:22;17.1;100.0
22674;DHT22;11504;43.334;21.918;2024-03-23T21:26:01;17.1;100.0
22674;DHT22;11504;43.334;21.918;2024-03-23T21:30:40;17.1;100.0
22674;DHT22;11504;43.334;21.918;2024-03-23T21:35:17;17.1;100.0
22674;DHT22;11504;43.334;21.918;2024-03-23T21:39:53;17.0;100.0
22674;DHT22;11504;43.334;21.918;2024-03-23T21:44:30;17.0;100.0
22674;DHT22;11504;43.334;21.918;2024-03-23T21:49:07;16.8;100.0
22674;DHT22;11504;43.334;21.918;2024-03-23T21:53:44;16.8;100.0
22674;DHT22;11504;43.334;21.918;2024-03-23T21:58:23;16.8;100.0
22674;DHT22;11504;43.334;21.918;2024-03-23T22:03:04;16.8;100.0
22674;DHT22;11504;43.334;21.918;2024-03-23T22:07:41;16.8;100.0
22674;DHT22;11504;43.334;21.918;2024-03-23T22:12:17;16.8;100.0
22674;DHT22;11504;43.334;21.918;2024-03-23T22:16:54;16.8;100.0
22674;DHT22;11504;43.334;21.918;2024-03-23T22:21:31;16.8;100.0
22674;DHT22;11504;43.334;21.918;2024-03-23T22:26:07;16.8;100.0
22674;DHT22;11504;43.334;21.918;2024-03-23T22:30:54;16.8;100.0
22674;DHT22;11504;43.334;21.918;2024-03-23T22:35:32;16.8;100.0
22674;DHT22;11504;43.334;21.918;2024-03-23T22:40:10;16.7;100.0
22674;DHT22;11504;43.334;21.918;2024-03-23T22:44:48;16.7;100.0
22674;DHT22;11504;43.334;21.918;2024-03-23T22:49:25;16.6;100.0
22674;DHT22;11504;43.334;21.918;2024-03-23T22:54:02;16.6;100.0
22674;DHT22;11504;43.334;21.918;2024-03-23T22:58:39;16.5;100.0
22674;DHT22;11504;43.334;21.918;2024-03-23T23:03:18;16.5;100.0
22674;DHT22;11504;43.334;21.918;2024-03-23T23:07:57;16.4;100.0
22674;DHT22;11504;43.334;21.918;2024-03-23T23:12:34;16.4;100.0
22674;DHT22;11504;43.334;21.918;2024-03-23T23:17:10;16.4;100.0
22674;DHT22;11504;43.334;21.918;2024-03-23T23:21:48;16.2;100.0
22674;DHT22;11504;43.334;21.918;2024-03-23T23:26:25;16.2;100.0
22674;DHT22;11504;43.334;21.918;2024-03-23T23:31:02;16.1;100.0
22674;DHT22;11504;43.334;21.918;2024-03-23T23:35:39;16.1;100.0
22674;DHT22;11504;43.334;21.918;2024-03-23T23:40:16;16.0;100.0
22674;DHT22;11504;43.334;21.918;2024-03-23T23:44:52;16.0;100.0
22674;DHT22;11504;43.334;21.918;2024-03-23T23:49:29;15.9;100.0
22674;DHT22;11504;43.334;21.918;2024-03-23T23:54:05;15.9;100.0
22674;DHT22;11504;43.334;21.918;2024-03-23T23:58:42;15.8;100.0
